Terminal Aerodrome Forecast
Issued by NWS

Home | Current Version | Previous Version | Text Only | Print | Product List | Glossary On
Versions: 1 2 3 4 5 6 7 8 9 10 11 12 13 14 15 16 17 18
000
FTUS42 TJSJ 252300
TAFJBQ
TAF
TJBQ 252328Z 2600/2624 09013G20KT P6SM SCT020 SCT030
     FM260100 10010KT P6SM FEW030
     FM261400 08015G20KT P6SM SCT025
     FM262300 10012G18KT P6SM SCT030
      AMD NOT SKED 2602/2611=

USA.gov is the U.S. government's official web portal to all federal, state and local government web resources and services.